Time;durP1;ratioP1;P1;durP2;ratioP2;P2;SDS_P1;SDS_P2;PMS_P1;PMS_P2;Temp;Humidity;BMP_temperature;BMP_pressure;BME280_temperature;BME280_humidity;BME280_pressure;Samples;Min_cycle;Max_cycle;Signal;HPM_P1;HPM_P2
2023/06/22 00:04:19;;;;;;;7.95;4.25;;;22.30;99.90;;;21.35;100.00;100342.06;12407980;23;96630;-94
2023/06/22 00:09:23;;;;;;;6.93;3.80;;;22.20;99.90;;;21.23;100.00;100313.31;12385473;23;96605;-94
2023/06/22 00:14:26;;;;;;;9.13;3.70;;;22.10;99.90;;;21.14;100.00;100312.06;12385025;23;96755;-94
2023/06/22 00:19:30;;;;;;;11.27;3.50;;;22.10;99.90;;;21.11;100.00;100308.78;12408369;23;96489;-93
2023/06/22 00:24:33;;;;;;;8.27;4.10;;;22.00;99.90;;;20.99;100.00;100299.84;12385462;23;96424;-93
2023/06/22 00:29:37;;;;;;;8.18;3.58;;;22.00;99.90;;;20.94;100.00;100299.72;12386389;23;96777;-94
2023/06/22 00:34:41;;;;;;;10.00;4.07;;;22.00;99.90;;;20.90;100.00;100292.28;12408129;23;96545;-94
2023/06/22 00:39:44;;;;;;;10.98;4.45;;;21.80;99.90;;;20.81;100.00;100289.94;12384812;23;96419;-93
2023/06/22 00:44:48;;;;;;;5.57;3.35;;;21.80;99.90;;;20.76;100.00;100297.91;12406108;23;96564;-93
2023/06/22 00:49:51;;;;;;;8.35;3.70;;;21.70;99.90;;;20.72;100.00;100288.63;12408042;23;96572;-93
2023/06/22 00:54:57;;;;;;;9.02;4.10;;;21.70;99.90;;;20.75;100.00;100311.63;12385257;23;96470;-93
2023/06/22 01:00:00;;;;;;;9.40;3.53;;;21.60;99.90;;;20.67;100.00;100312.81;12403152;23;96846;-93
2023/06/22 01:05:06;;;;;;;7.57;4.07;;;21.60;99.90;;;20.67;100.00;100325.47;12394780;23;96508;-92
2023/06/22 01:10:34;;;;;;;7.82;3.10;;;21.50;99.90;;;20.53;100.00;100308.66;12413851;23;96549;-93
2023/06/22 01:15:49;;;;;;;10.73;4.55;;;21.40;99.90;;;20.48;100.00;100314.75;12408580;23;96608;-92
2023/06/22 01:20:57;;;;;;;10.20;4.03;;;21.40;99.90;;;20.47;100.00;100313.09;12410808;23;96435;-93
2023/06/22 01:26:19;;;;;;;7.65;3.20;;;21.40;99.90;;;20.47;100.00;100315.81;12387173;23;96597;-93
2023/06/22 01:31:29;;;;;;;7.60;3.22;;;21.40;99.90;;;20.35;100.00;100312.22;12409552;23;96488;-93
2023/06/22 01:36:35;;;;;;;9.65;4.07;;;21.30;99.90;;;20.26;100.00;100314.38;12410752;23;96553;-92
2023/06/22 01:41:41;;;;;;;7.93;3.72;;;21.30;99.90;;;20.23;100.00;100322.13;12387391;23;96506;-93
2023/06/22 01:46:47;;;;;;;6.72;3.35;;;21.20;99.90;;;20.10;100.00;100314.22;12411551;23;97098;-92
2023/06/22 01:51:51;;;;;;;7.28;3.08;;;21.00;99.90;;;20.07;100.00;100325.44;12391590;23;96540;-93
2023/06/22 01:56:55;;;;;;;8.75;3.15;;;21.00;99.90;;;20.02;100.00;100329.66;12391447;23;96425;-92
2023/06/22 02:02:09;;;;;;;8.43;3.13;;;20.90;99.90;;;19.95;100.00;100334.31;12420381;23;96424;-93
2023/06/22 02:07:20;;;;;;;8.20;3.75;;;20.90;99.90;;;19.90;100.00;100331.44;12387031;23;96423;-93
2023/06/22 02:12:27;;;;;;;8.90;3.70;;;20.80;99.90;;;19.92;100.00;100332.06;12388344;23;97008;-92
2023/06/22 02:17:33;;;;;;;8.55;3.72;;;20.80;99.90;;;19.93;100.00;100340.97;12386314;23;96587;-92
2023/06/22 02:22:37;;;;;;;8.48;3.20;;;20.80;99.90;;;19.83;100.00;100325.31;12387057;23;96539;-93
2023/06/22 02:27:41;;;;;;;5.80;2.83;;;20.70;99.90;;;19.81;100.00;100332.81;12385242;23;96584;-93
2023/06/22 02:32:44;;;;;;;7.38;3.40;;;20.70;99.90;;;19.77;100.00;100345.91;12408099;23;97031;-93
2023/06/22 02:37:51;;;;;;;4.63;3.13;;;20.70;99.90;;;19.66;100.00;100337.75;12386543;23;96606;-93
2023/06/22 02:42:58;;;;;;;6.03;3.30;;;20.60;99.90;;;19.59;100.00;100340.53;12387037;23;96688;-93
2023/06/22 02:48:01;;;;;;;10.15;5.38;;;20.50;99.90;;;19.53;100.00;100333.28;12409515;23;96546;-92
2023/06/22 02:53:05;;;;;;;6.82;3.47;;;20.50;99.90;;;19.56;100.00;100356.31;12386184;23;96348;-92
2023/06/22 02:58:08;;;;;;;7.60;3.38;;;20.50;99.90;;;19.50;100.00;100352.63;12386647;23;96545;-93
2023/06/22 03:03:12;;;;;;;9.45;3.50;;;20.50;99.90;;;19.49;100.00;100346.41;12387279;23;97104;-93
2023/06/22 03:08:16;;;;;;;8.85;5.38;;;20.50;99.90;;;19.54;100.00;100348.41;12409743;23;96810;-93
2023/06/22 03:13:19;;;;;;;7.85;3.60;;;20.60;99.90;;;19.56;100.00;100343.66;12384389;23;96934;-93
2023/06/22 03:18:23;;;;;;;5.95;3.70;;;20.60;99.90;;;19.56;100.00;100335.56;12408387;23;96531;-93
2023/06/22 03:23:26;;;;;;;7.68;3.83;;;20.60;99.90;;;19.56;100.00;100345.53;12386295;23;96472;-93
2023/06/22 03:28:30;;;;;;;6.65;3.42;;;20.50;99.90;;;19.56;100.00;100345.53;12386057;23;96592;-92
2023/06/22 03:33:34;;;;;;;9.35;3.80;;;20.50;99.90;;;19.58;100.00;100338.03;12371549;23;96523;-93
2023/06/22 03:38:38;;;;;;;9.52;3.17;;;20.60;99.90;;;19.64;100.00;100345.25;12383832;23;96367;-93
2023/06/22 03:43:45;;;;;;;7.90;3.60;;;20.60;99.90;;;19.70;100.00;100347.03;12409567;23;96894;-93
2023/06/22 03:48:49;;;;;;;6.10;3.40;;;20.70;99.90;;;19.69;100.00;100348.91;12385116;23;96808;-93
2023/06/22 03:53:52;;;;;;;8.77;3.60;;;20.70;99.90;;;19.67;100.00;100347.47;12386952;23;96513;-93
2023/06/22 03:58:56;;;;;;;7.97;3.42;;;20.70;99.90;;;19.71;100.00;100349.50;12385660;23;97103;-96
2023/06/22 04:04:00;;;;;;;7.80;3.72;;;20.70;99.90;;;19.69;100.00;100350.78;12409094;23;96512;-93
2023/06/22 04:09:03;;;;;;;10.02;3.63;;;20.60;99.90;;;19.76;100.00;100355.06;12383911;23;96677;-94
2023/06/22 04:14:07;;;;;;;11.02;3.78;;;20.80;99.90;;;19.88;100.00;100362.41;12385640;23;96343;-94
2023/06/22 04:19:16;;;;;;;8.52;4.03;;;20.90;99.90;;;19.95;100.00;100349.66;12387915;23;96673;-93
2023/06/22 04:24:19;;;;;;;9.55;3.58;;;21.00;99.90;;;20.13;100.00;100354.22;12387201;23;97250;-93
2023/06/22 04:29:28;;;;;;;9.98;3.83;;;21.10;99.90;;;20.25;100.00;100358.63;12387230;23;96844;-93
2023/06/22 04:34:32;;;;;;;7.60;3.57;;;21.30;99.90;;;20.42;100.00;100360.69;12409893;23;96577;-93
2023/06/22 04:39:35;;;;;;;11.27;3.50;;;21.40;99.90;;;20.51;100.00;100365.59;12386788;23;96501;-95
2023/06/22 04:44:41;;;;;;;9.80;3.75;;;21.60;99.90;;;20.59;100.00;100372.53;12411190;23;96511;-94
2023/06/22 04:49:45;;;;;;;11.30;3.65;;;21.60;99.90;;;20.66;100.00;100369.75;12386838;23;96436;-95
2023/06/22 04:54:55;;;;;;;9.68;3.90;;;21.60;99.90;;;20.70;100.00;100360.13;12395828;23;96553;-95
2023/06/22 05:00:12;;;;;;;;;;;21.70;99.90;;;20.85;100.00;100365.91;12391719;23;96470;-96
2023/06/22 05:05:16;;;;;;;11.95;4.20;;;21.80;99.90;;;20.94;100.00;100369.94;12394700;23;96904;-96
2023/06/22 05:10:20;;;;;;;8.00;3.50;;;22.00;99.90;;;21.03;100.00;100365.84;12413314;23;96624;-94
2023/06/22 05:15:27;;;;;;;6.65;3.80;;;22.10;99.90;;;21.14;100.00;100371.50;12422595;23;96497;-94
2023/06/22 05:20:31;;;;;;;8.13;4.40;;;22.20;99.90;;;21.30;100.00;100379.78;12413754;23;96636;-95
2023/06/22 05:25:35;;;;;;;7.78;3.75;;;22.30;99.90;;;21.39;100.00;100380.25;12389254;23;96440;-96
2023/06/22 05:30:38;;;;;;;9.82;3.70;;;22.40;99.90;;;21.53;100.00;100387.06;12389024;23;97056;-95
2023/06/22 05:35:42;;;;;;;7.28;3.97;;;22.50;99.90;;;21.70;100.00;100384.47;12389906;23;96537;-95
2023/06/22 05:40:46;;;;;;;8.30;4.20;;;22.70;99.90;;;21.89;100.00;100391.41;12387971;23;96482;-94
2023/06/22 05:45:49;;;;;;;7.13;4.03;;;22.90;99.90;;;22.19;100.00;100393.13;12387897;23;97127;-94
2023/06/22 05:50:54;;;;;;;11.50;4.25;;;23.20;99.90;;;22.44;100.00;100395.53;12395494;23;96603;-95
2023/06/22 05:55:57;;;;;;;10.93;4.03;;;23.40;99.90;;;22.62;99.99;100392.63;12392830;23;96470;-95
2023/06/22 06:01:01;;;;;;;10.15;4.53;;;23.60;99.90;;;22.85;98.75;100394.41;12387951;23;96542;-94
2023/06/22 06:06:04;;;;;;;8.95;4.28;;;23.80;99.90;;;23.04;96.66;100399.63;12387989;23;97451;-93
2023/06/22 06:11:08;;;;;;;7.30;3.70;;;24.10;99.90;;;23.14;92.75;100389.75;12410140;23;96312;-94
2023/06/22 06:16:12;;;;;;;10.07;3.60;;;24.20;99.90;;;23.28;90.09;100389.44;12410915;23;96488;-94
2023/06/22 06:21:17;;;;;;;7.53;3.30;;;24.30;99.90;;;23.55;88.70;100400.44;12387759;23;96493;-96
2023/06/22 06:26:27;;;;;;;10.02;4.50;;;24.60;99.90;;;23.72;86.15;100385.78;12388447;23;96514;-94
2023/06/22 06:31:31;;;;;;;7.65;4.85;;;24.80;99.90;;;23.89;87.52;100382.22;12411344;23;96592;-92
2023/06/22 06:36:35;;;;;;;12.40;5.30;;;24.90;99.90;;;24.13;86.93;100391.78;12384293;23;96994;-92
2023/06/22 06:41:38;;;;;;;11.70;4.90;;;25.10;99.90;;;24.27;84.56;100382.16;12406018;23;96774;-93
2023/06/22 06:46:42;;;;;;;11.02;4.50;;;25.30;99.90;;;24.51;83.72;100379.19;12392002;23;96816;-94
2023/06/22 06:51:46;;;;;;;8.07;4.10;;;25.50;99.90;;;24.73;81.57;100379.97;12388588;23;96402;-95
2023/06/22 06:56:49;;;;;;;8.48;4.22;;;25.70;99.90;;;24.98;80.11;100370.41;12386507;23;97213;-96
2023/06/22 07:01:53;;;;;;;9.48;5.25;;;26.00;99.90;;;25.19;78.48;100382.28;12409240;23;96609;-91
2023/06/22 07:07:01;;;;;;;9.20;4.38;;;26.20;99.90;;;25.37;78.52;100376.47;12385902;23;96494;-94
2023/06/22 07:12:06;;;;;;;11.07;3.60;;;26.40;99.90;;;25.60;78.44;100367.06;12385805;23;96470;-92
2023/06/22 07:17:10;;;;;;;10.40;4.50;;;26.60;99.90;;;25.92;75.67;100371.66;12384207;23;96981;-93
2023/06/22 07:22:13;;;;;;;7.65;3.28;;;26.90;99.90;;;26.07;70.60;100355.38;12382761;23;96633;-95
2023/06/22 07:27:19;;;;;;;9.25;3.50;;;27.20;99.40;;;26.30;68.78;100375.88;12407176;23;96597;-93
2023/06/22 07:32:22;;;;;;;7.05;3.15;;;27.30;98.30;;;26.42;67.67;100377.31;12384605;23;96541;-92
2023/06/22 07:37:27;;;;;;;11.68;4.20;;;27.50;97.90;;;26.68;66.59;100380.09;12384657;23;96941;-95
2023/06/22 07:42:34;;;;;;;7.75;3.70;;;27.70;97.00;;;26.84;63.78;100359.13;12410274;23;96735;-93
2023/06/22 07:47:38;;;;;;;10.68;3.60;;;27.90;95.80;;;27.00;64.13;100359.97;12388207;23;96712;-94
2023/06/22 07:52:42;;;;;;;6.70;2.97;;;28.00;95.30;;;27.11;62.00;100372.50;12412510;23;96811;-94
2023/06/22 07:57:51;;;;;;;9.90;3.47;;;28.10;94.70;;;27.17;59.32;100366.00;12433680;23;96526;-93
2023/06/22 08:02:56;;;;;;;6.55;3.13;;;28.20;93.30;;;27.17;60.08;100358.63;12390705;23;96392;-93
2023/06/22 08:07:59;;;;;;;6.03;3.20;;;28.20;93.30;;;27.33;59.17;100348.50;12410117;23;97205;-94
2023/06/22 08:13:03;;;;;;;6.68;3.45;;;28.30;92.90;;;27.43;60.30;100343.03;12385423;23;96606;-92
2023/06/22 08:18:07;;;;;;;5.53;3.00;;;28.40;92.80;;;27.48;58.83;100340.28;12385484;23;96390;-93
2023/06/22 08:23:10;;;;;;;6.20;3.20;;;28.40;92.30;;;27.66;58.85;100340.78;12383884;23;96865;-93
2023/06/22 08:28:14;;;;;;;6.25;3.00;;;28.50;92.00;;;27.84;57.62;100345.66;12384575;23;96801;-93
2023/06/22 08:33:18;;;;;;;9.18;2.90;;;28.70;91.40;;;27.95;54.01;100346.44;12408549;23;96425;-94
2023/06/22 08:38:30;;;;;;;6.60;3.00;;;28.90;90.10;;;28.03;53.82;100345.03;12389488;23;96549;-93
2023/06/22 08:43:33;;;;;;;8.52;3.35;;;28.90;88.80;;;27.96;54.63;100339.88;12386501;23;96642;-93
2023/06/22 08:48:37;;;;;;;7.38;3.30;;;28.90;88.10;;;28.07;54.43;100335.19;12386806;23;96495;-93
2023/06/22 08:53:41;;;;;;;5.78;2.90;;;28.90;88.10;;;28.12;54.27;100335.16;12403657;23;96539;-92
2023/06/22 08:58:44;;;;;;;12.55;3.13;;;29.00;87.80;;;28.32;54.81;100334.28;12379275;23;98078;-93
2023/06/22 09:03:55;;;;;;;5.72;3.10;;;29.10;87.30;;;28.36;54.78;100313.47;12380669;23;96389;-93
2023/06/22 09:08:59;;;;;;;6.95;3.20;;;29.30;87.40;;;28.57;54.53;100311.44;12381625;23;96545;-93
2023/06/22 09:14:03;;;;;;;6.55;3.65;;;29.50;86.90;;;28.66;54.82;100310.50;12402650;23;96566;-94
2023/06/22 09:19:07;;;;;;;8.23;3.60;;;29.60;87.00;;;28.84;54.94;100306.25;12385565;23;96308;-93
2023/06/22 09:24:10;;;;;;;8.80;4.10;;;29.80;86.90;;;29.09;53.64;100305.28;12439321;23;96581;-93
2023/06/22 09:29:14;;;;;;;6.30;3.72;;;30.00;86.00;;;29.28;53.38;100294.41;12408141;23;96518;-93
2023/06/22 09:34:20;;;;;;;9.80;3.88;;;30.20;85.40;;;29.49;53.14;100308.69;12402421;23;96653;-93
2023/06/22 09:39:23;;;;;;;7.15;3.40;;;30.40;85.20;;;29.49;51.66;100286.78;12403966;23;96881;-93
2023/06/22 09:44:27;;;;;;;7.00;4.13;;;30.50;83.60;;;29.64;51.83;100294.84;12379913;23;96318;-93
2023/06/22 09:49:33;;;;;;;8.68;3.83;;;30.70;83.40;;;29.83;52.56;100294.88;12380742;23;96789;-93
2023/06/22 09:54:50;;;;;;;5.05;3.63;;;30.80;83.10;;;29.95;51.69;100283.50;12406690;23;96442;-94
2023/06/22 09:59:54;;;;;;;6.22;4.43;;;31.00;82.80;;;30.08;51.40;100286.31;12403508;23;96509;-93
2023/06/22 10:04:57;;;;;;;12.55;4.82;;;31.00;82.00;;;30.15;49.33;100283.25;12377206;23;96952;-93
2023/06/22 10:10:02;;;;;;;8.05;4.60;;;31.10;80.30;;;30.13;48.37;100285.47;12379362;23;96642;-95
2023/06/22 10:15:06;;;;;;;7.45;4.38;;;31.10;79.30;;;30.22;49.85;100282.88;12381590;23;96360;-93
2023/06/22 10:20:12;;;;;;;9.75;4.55;;;31.10;80.00;;;30.35;49.01;100282.16;12381722;23;96550;-95
2023/06/22 10:25:15;;;;;;;8.68;5.03;;;31.20;78.80;;;30.40;49.04;100273.81;12381032;23;96667;-93
2023/06/22 10:30:19;;;;;;;10.98;4.60;;;31.30;78.60;;;30.63;49.26;100278.38;12382295;23;96484;-92
2023/06/22 10:35:22;;;;;;;8.98;4.43;;;31.50;78.70;;;30.84;49.47;100283.56;12381920;23;96616;-93
2023/06/22 10:40:26;;;;;;;9.15;4.22;;;31.70;78.70;;;31.05;48.75;100273.84;12391032;23;96852;-93
2023/06/22 10:45:29;;;;;;;7.20;4.63;;;32.00;77.40;;;31.14;46.24;100261.06;12378938;23;96436;-94
2023/06/22 10:50:33;;;;;;;6.05;4.55;;;32.20;75.50;;;31.17;46.45;100265.13;12380411;23;96587;-92
2023/06/22 10:55:37;;;;;;;10.32;4.43;;;32.20;74.70;;;31.22;47.13;100270.53;12377365;23;96555;-92
2023/06/22 11:00:59;;;;;;;7.30;4.45;;;32.20;75.30;;;31.30;46.28;100266.28;12387435;23;96790;-93
2023/06/22 11:06:03;;;;;;;13.57;4.90;;;32.30;74.50;;;31.42;45.09;100264.66;12404397;23;96893;-92
2023/06/22 11:11:06;;;;;;;6.50;4.32;;;32.30;72.80;;;31.49;43.84;100261.53;12377858;23;96681;-92
2023/06/22 11:16:10;;;;;;;10.23;4.90;;;32.40;71.80;;;31.63;43.41;100254.06;12391377;23;96499;-91
2023/06/22 11:21:14;;;;;;;7.45;4.15;;;32.50;71.50;;;31.77;44.52;100261.47;12379990;23;96614;-91
2023/06/22 11:26:17;;;;;;;9.10;4.85;;;32.70;71.90;;;31.87;44.15;100256.63;12401133;23;96838;-92
2023/06/22 11:31:21;;;;;;;9.20;4.28;;;32.80;71.20;;;32.03;43.30;100243.34;12378459;23;97197;-91
2023/06/22 11:36:32;;;;;;;9.88;5.03;;;33.00;70.30;;;32.05;44.50;100252.09;12380062;23;96667;-91
2023/06/22 11:41:36;;;;;;;7.75;4.30;;;33.00;70.50;;;32.15;44.31;100240.88;12403712;23;96523;-93
2023/06/22 11:46:40;;;;;;;8.48;5.20;;;33.10;70.40;;;32.32;43.89;100242.09;12400352;23;97162;-91
2023/06/22 11:51:43;;;;;;;9.25;4.65;;;33.30;70.30;;;32.44;43.20;100237.69;12402284;23;96506;-92
2023/06/22 11:56:47;;;;;;;9.20;4.65;;;33.40;69.20;;;32.60;43.18;100240.06;12401829;23;96835;-92
2023/06/22 12:01:51;;;;;;;9.45;7.38;;;33.50;69.00;;;32.69;42.51;100233.50;12378352;23;96871;-91
2023/06/22 12:06:54;;;;;;;11.02;5.10;;;33.70;68.20;;;32.63;41.78;100223.78;12401897;23;96864;-93
2023/06/22 12:11:58;;;;;;;7.80;3.92;;;33.60;66.90;;;32.67;43.07;100227.50;12378686;23;97102;-91
2023/06/22 12:17:02;;;;;;;8.40;4.72;;;33.70;68.70;;;32.91;42.32;100223.59;12376697;23;96619;-93
2023/06/22 12:22:05;;;;;;;10.38;4.28;;;34.10;67.80;;;33.08;42.00;100209.94;12379639;23;96779;-92
2023/06/22 12:27:10;;;;;;;8.98;3.60;;;34.40;67.50;;;33.28;42.85;100192.81;12413425;23;96629;-94
2023/06/22 12:32:14;;;;;;;9.65;4.60;;;35.00;67.20;;;33.54;41.46;100197.63;12379236;23;96542;-94
2023/06/22 12:37:18;;;;;;;6.72;4.32;;;35.40;65.40;;;33.79;40.84;100188.56;12375008;23;96720;-93
2023/06/22 12:42:21;;;;;;;7.25;3.78;;;35.70;64.90;;;34.27;39.76;100187.59;12379261;23;96518;-96
2023/06/22 12:47:25;;;;;;;8.38;3.85;;;36.30;63.40;;;34.71;39.22;100184.78;12381836;23;96489;-95
2023/06/22 12:52:33;;;;;;;8.35;4.60;;;36.70;62.70;;;35.08;36.72;100185.94;12411862;23;96770;-95
2023/06/22 12:57:37;;;;;;;8.95;4.65;;;36.80;60.60;;;35.44;36.22;100173.59;12401100;23;96336;-95
2023/06/22 13:02:41;;;;;;;6.63;4.65;;;36.70;60.40;;;35.32;36.12;100175.09;12394086;23;96581;-96
2023/06/22 13:07:45;;;;;;;7.05;4.75;;;36.40;59.50;;;35.19;36.29;100172.56;12384659;23;96478;-94
2023/06/22 13:12:49;;;;;;;9.85;4.53;;;36.20;59.10;;;35.03;35.78;100172.34;12400215;23;96419;-95
2023/06/22 13:17:55;;;;;;;6.72;4.43;;;36.10;58.80;;;34.75;36.74;100155.38;12382353;23;96790;-94
2023/06/22 13:22:58;;;;;;;13.10;5.18;;;35.90;59.20;;;34.55;36.57;100156.91;12380829;23;96778;-94
2023/06/22 13:28:03;;;;;;;7.72;4.28;;;35.80;59.00;;;34.50;37.57;100157.09;12378068;23;96991;-93
2023/06/22 13:33:10;;;;;;;6.40;4.53;;;35.80;59.10;;;34.42;36.25;100155.13;12380293;23;96827;-95
2023/06/22 13:38:13;;;;;;;7.10;4.40;;;35.80;58.40;;;34.64;37.02;100146.66;12381043;23;96893;-95
2023/06/22 13:43:17;;;;;;;8.27;4.20;;;35.80;58.60;;;34.95;36.93;100145.56;12380481;23;96441;-96
2023/06/22 13:48:22;;;;;;;5.93;4.32;;;36.00;59.10;;;35.19;36.83;100134.72;12402911;23;96637;-94
2023/06/22 13:53:26;;;;;;;6.65;4.55;;;36.10;58.90;;;35.52;36.06;100137.63;12381780;23;96423;-95
2023/06/22 13:58:30;;;;;;;9.63;4.85;;;36.30;58.60;;;35.74;35.57;100128.16;12380099;23;96407;-94
2023/06/22 14:03:33;;;;;;;9.25;5.35;;;36.40;58.10;;;35.72;34.36;100136.00;12382677;23;96977;-96
2023/06/22 14:08:37;;;;;;;6.78;5.47;;;36.40;57.40;;;35.45;35.08;100122.69;12387070;23;96396;-96
2023/06/22 14:13:44;;;;;;;10.10;6.55;;;36.30;57.50;;;35.34;34.92;100125.84;12384370;23;96705;-96
2023/06/22 14:18:49;;;;;;;10.80;5.68;;;36.20;57.20;;;35.17;35.46;100111.34;12381866;23;96770;-95
2023/06/22 14:23:52;;;;;;;10.00;6.10;;;36.00;57.80;;;34.94;35.68;100117.16;12379920;23;96957;-94
2023/06/22 14:28:56;;;;;;;6.85;5.82;;;35.80;57.40;;;34.76;36.89;100099.84;12403469;23;96796;-96
2023/06/22 14:34:02;;;;;;;11.10;6.75;;;35.70;58.00;;;34.92;37.63;100102.06;12389570;23;97146;-94
2023/06/22 14:39:06;;;;;;;9.48;6.57;;;36.00;58.30;;;34.96;36.81;100101.06;12381687;23;96806;-95
2023/06/22 14:44:10;;;;;;;10.80;6.38;;;36.20;58.90;;;34.96;36.20;100097.50;12381070;23;96984;-96
2023/06/22 14:49:14;;;;;;;9.93;6.00;;;36.40;58.10;;;34.75;36.45;100091.91;12382386;23;96554;-96
2023/06/22 14:54:18;;;;;;;8.02;6.65;;;36.40;57.10;;;34.94;36.93;100089.53;12414355;23;96611;-96
2023/06/22 14:59:21;;;;;;;9.80;6.07;;;36.70;57.20;;;35.17;37.01;100092.81;12405834;23;96678;-96
2023/06/22 15:04:31;;;;;;;8.93;6.80;;;36.90;56.90;;;35.44;36.32;100074.13;12384042;23;96937;-96
2023/06/22 15:09:35;;;;;;;9.13;5.80;;;37.10;57.50;;;35.76;34.97;100078.09;12385311;23;96617;-95
2023/06/22 15:14:40;;;;;;;10.27;5.57;;;37.30;56.20;;;35.74;35.37;100056.28;12404603;23;96485;-96
2023/06/22 15:19:44;;;;;;;7.82;6.80;;;37.20;56.40;;;35.82;34.90;100069.25;12381228;23;96850;-93
2023/06/22 15:24:47;;;;;;;9.27;6.55;;;37.10;55.80;;;35.55;35.07;100056.00;12379820;23;96435;-95
2023/06/22 15:29:51;;;;;;;10.32;6.07;;;36.80;56.10;;;35.41;35.40;100061.78;12378950;23;96583;-94
2023/06/22 15:34:55;;;;;;;9.52;7.43;;;36.70;56.30;;;35.31;35.58;100062.16;12379008;23;97175;-94
2023/06/22 15:39:58;;;;;;;9.05;6.45;;;36.70;56.30;;;35.30;36.35;100052.28;12380030;23;96523;-95
2023/06/22 15:45:04;;;;;;;10.05;7.30;;;36.70;56.50;;;35.27;36.14;100059.28;12381484;23;96418;-95
2023/06/22 15:50:07;;;;;;;11.52;6.22;;;36.70;56.00;;;35.43;35.62;100064.22;12381322;23;96586;-94
2023/06/22 15:55:14;;;;;;;7.95;5.68;;;36.80;56.00;;;35.55;35.91;100064.28;12404275;23;96479;-95
2023/06/22 16:00:19;;;;;;;11.80;5.93;;;36.90;55.90;;;35.62;35.32;100059.81;12394033;23;96456;-95
2023/06/22 16:05:23;;;;;;;8.07;5.95;;;37.00;55.50;;;35.63;35.64;100050.41;12402101;23;96563;-96
2023/06/22 16:10:26;;;;;;;10.88;6.32;;;36.90;55.50;;;35.66;35.42;100051.66;12382380;23;96305;-95
2023/06/22 16:15:30;;;;;;;8.50;5.85;;;36.90;55.80;;;35.72;35.95;100052.25;12379273;23;96456;-94
2023/06/22 16:20:34;;;;;;;12.45;6.30;;;36.90;55.90;;;35.74;35.88;100056.28;12384057;23;96552;-94
2023/06/22 16:25:37;;;;;;;8.48;5.80;;;36.80;56.20;;;35.59;35.12;100048.66;12418090;23;96415;-94
2023/06/22 16:30:41;;;;;;;7.80;6.00;;;36.60;55.90;;;35.38;35.97;100043.09;12415570;23;96422;-94
2023/06/22 16:35:45;;;;;;;9.32;5.50;;;36.40;56.30;;;35.13;36.31;100047.69;12390307;23;96478;-96
2023/06/22 16:40:49;;;;;;;7.22;5.55;;;36.20;56.30;;;34.85;36.66;100056.44;12382649;23;96466;-96
2023/06/22 16:45:52;;;;;;;8.50;5.80;;;35.90;56.40;;;34.45;37.23;100038.63;12402963;23;96527;-95
2023/06/22 16:50:56;;;;;;;9.38;6.40;;;35.50;56.80;;;34.28;37.28;100037.53;12382280;23;96820;-96
2023/06/22 16:56:01;;;;;;;9.90;6.03;;;35.40;57.20;;;34.19;38.98;100044.25;12386417;23;96434;-93
2023/06/22 17:01:10;;;;;;;8.45;5.68;;;35.20;58.00;;;33.88;38.60;100033.41;12403900;23;96599;-95
2023/06/22 17:06:15;;;;;;;9.20;5.50;;;35.10;58.90;;;33.59;41.01;100034.94;12381515;23;96649;-95
2023/06/22 17:11:19;;;;;;;8.93;5.82;;;34.70;59.80;;;33.31;41.87;100042.66;12405600;23;96427;-95
2023/06/22 17:16:24;;;;;;;15.05;6.00;;;34.30;61.20;;;32.92;42.95;100035.31;12404206;23;96546;-95
2023/06/22 17:21:29;;;;;;;12.98;6.18;;;33.90;62.50;;;32.55;44.62;100050.41;12382330;23;96391;-95
2023/06/22 17:26:33;;;;;;;8.88;6.57;;;33.50;63.70;;;32.07;45.84;100035.44;12383405;23;96545;-95
2023/06/22 17:31:45;;;;;;;14.90;5.97;;;32.90;65.00;;;31.75;47.10;100035.72;12382066;23;96584;-95
2023/06/22 17:36:51;;;;;;;9.95;6.05;;;32.60;66.20;;;31.46;48.49;100028.72;12382419;23;96822;-95
2023/06/22 17:41:54;;;;;;;9.57;5.90;;;32.20;67.10;;;31.22;49.67;100028.97;12380746;23;96917;-95
2023/06/22 17:46:58;;;;;;;11.73;6.40;;;32.00;67.80;;;30.97;50.02;100030.34;12380782;23;96409;-96
2023/06/22 17:52:02;;;;;;;9.07;6.28;;;31.80;68.80;;;30.75;51.07;100027.53;12380858;23;96546;-96
2023/06/22 17:57:17;;;;;;;10.80;5.80;;;31.50;70.00;;;30.58;52.38;100011.66;12382207;23;96496;-95
2023/06/22 18:02:25;;;;;;;9.35;5.88;;;31.40;70.60;;;30.41;53.03;100026.00;12381561;23;96533;-94
2023/06/22 18:07:31;;;;;;;8.90;5.97;;;31.20;70.90;;;30.21;53.39;100027.19;12381702;23;96495;-95
2023/06/22 18:12:38;;;;;;;12.90;5.70;;;31.00;71.50;;;30.01;54.42;100031.06;12383835;23;96870;-95
2023/06/22 18:17:42;;;;;;;13.32;6.45;;;30.80;72.40;;;29.81;56.48;100028.69;12382937;23;96642;-95
2023/06/22 18:22:47;;;;;;;10.25;6.57;;;30.50;73.50;;;29.56;57.07;100030.72;12382089;23;96453;-95
2023/06/22 18:27:52;;;;;;;10.52;6.45;;;30.40;74.80;;;29.39;58.63;100033.16;12382333;23;96911;-94
2023/06/22 18:32:57;;;;;;;9.02;6.38;;;30.20;75.50;;;29.17;59.00;100022.00;12402962;23;96538;-95
2023/06/22 18:38:04;;;;;;;9.90;6.47;;;30.00;76.10;;;28.95;60.54;100028.84;12382093;23;96576;-95
2023/06/22 18:43:07;;;;;;;10.95;6.72;;;29.70;77.00;;;28.71;61.03;100037.06;12381091;23;96482;-95
2023/06/22 18:48:11;;;;;;;9.55;6.70;;;29.50;77.40;;;28.51;60.50;100057.25;12410431;23;96906;-94
2023/06/22 18:53:26;;;;;;;11.65;5.90;;;29.30;77.50;;;28.27;61.50;100059.13;12382660;23;97327;-94
2023/06/22 18:58:29;;;;;;;8.65;6.32;;;29.20;78.00;;;28.11;62.40;100060.34;12404989;23;96542;-95
2023/06/22 19:03:35;;;;;;;8.90;6.57;;;28.90;78.80;;;27.92;63.38;100074.72;12381877;23;96948;-95
2023/06/22 19:09:14;;;;;;;9.75;6.72;;;28.70;79.40;;;27.68;64.00;100074.59;12405624;23;96339;-94
2023/06/22 19:14:22;;;;;;;9.85;6.50;;;28.50;80.00;;;27.50;64.63;100071.72;12381846;23;96526;-95
2023/06/22 19:19:26;;;;;;;8.23;6.20;;;28.30;80.50;;;27.38;65.19;100080.25;12404809;23;96608;-93
2023/06/22 19:24:31;;;;;;;9.82;6.43;;;28.20;80.90;;;27.17;66.72;100095.94;12403403;23;96471;-94
2023/06/22 19:29:36;;;;;;;12.60;6.80;;;28.00;82.00;;;26.96;68.04;100095.16;12381418;23;96486;-93
2023/06/22 19:34:47;;;;;;;8.35;6.53;;;27.70;83.00;;;26.79;68.57;100095.50;12404395;23;96359;-95
2023/06/22 19:39:51;;;;;;;7.85;6.07;;;27.60;83.80;;;26.69;69.42;100111.91;12381337;23;96464;-94
2023/06/22 19:44:58;;;;;;;13.02;7.38;;;27.40;84.40;;;26.44;70.97;100095.59;12381306;23;96566;-94
2023/06/22 19:50:05;;;;;;;14.35;7.32;;;27.30;85.50;;;26.32;71.57;100112.19;12381420;23;96498;-94
2023/06/22 19:55:13;;;;;;;10.75;6.95;;;27.10;86.90;;;26.14;72.50;100111.66;12381706;23;96375;-94
2023/06/22 20:00:21;;;;;;;10.50;6.60;;;26.90;87.10;;;26.03;73.66;100115.50;12386064;23;96751;-93
2023/06/22 20:05:25;;;;;;;9.15;6.57;;;26.80;87.80;;;25.84;74.07;100112.47;12409696;23;96426;-94
2023/06/22 20:10:36;;;;;;;10.75;6.20;;;26.70;88.50;;;25.77;74.98;100125.53;12386156;23;96494;-94
2023/06/22 20:15:45;;;;;;;10.93;5.85;;;26.60;89.30;;;25.63;76.75;100124.38;12405072;23;96542;-95
2023/06/22 20:20:49;;;;;;;10.98;6.78;;;26.40;90.10;;;25.50;77.30;100116.75;12382007;23;97002;-96
2023/06/22 20:25:53;;;;;;;7.55;5.90;;;26.20;90.50;;;25.33;77.87;100106.09;12381059;23;96551;-95
2023/06/22 20:31:12;;;;;;;10.95;6.40;;;26.10;90.80;;;25.24;78.96;100104.94;12380976;23;96512;-95
2023/06/22 20:36:17;;;;;;;8.90;6.00;;;26.00;91.30;;;25.13;79.43;100112.28;12379857;23;97002;-95
2023/06/22 20:41:22;;;;;;;11.23;6.53;;;25.90;91.60;;;25.03;79.70;100113.00;12379642;23;96637;-96
2023/06/22 20:46:29;;;;;;;7.68;6.88;;;25.80;92.00;;;24.96;80.13;100107.00;12401361;23;96628;-94
2023/06/22 20:51:34;;;;;;;8.13;7.32;;;25.80;92.30;;;24.89;80.71;100092.84;12406286;23;96597;-96